Time;durP1;ratioP1;P1;durP2;ratioP2;P2;SDS_P1;SDS_P2;PMS_P1;PMS_P2;Temp;Humidity;BMP_temperature;BMP_pressure;BME280_temperature;BME280_humidity;BME280_pressure;Samples;Min_cycle;Max_cycle;Signal;HPM_P1;HPM_P2
2021/08/04 00:01:29;;;;;;;2.20;2.10;;;;;;;21.71;45.25;99729.78;4974155;28;20078;-88
2021/08/04 00:03:56;;;;;;;2.55;2.35;;;;;;;21.73;45.46;99730.47;4975045;28;20039;-88
2021/08/04 00:06:34;;;;;;;3.72;2.28;;;;;;;21.75;45.63;99738.28;4974388;28;20049;-87
2021/08/04 00:09:01;;;;;;;2.65;2.22;;;;;;;21.59;46.32;99739.88;4974237;28;20062;-89
2021/08/04 00:11:28;;;;;;;3.53;2.20;;;;;;;21.61;46.71;99732.56;4986084;28;20073;-89
2021/08/04 00:13:55;;;;;;;2.85;2.45;;;;;;;21.52;46.79;99735.34;4974784;28;20059;-89
2021/08/04 00:16:22;;;;;;;6.07;2.05;;;;;;;21.58;46.22;99724.13;4974296;28;20039;-89
2021/08/04 00:18:49;;;;;;;4.05;1.92;;;;;;;21.62;46.35;99722.78;4974633;28;20117;-90
2021/08/04 00:21:17;;;;;;;2.50;2.00;;;;;;;21.55;46.13;99727.09;4989354;28;20046;-89
2021/08/04 00:23:44;;;;;;;5.13;1.95;;;;;;;21.64;46.17;99731.44;4976157;28;20073;-88
2021/08/04 00:26:10;;;;;;;2.42;2.10;;;;;;;21.74;46.20;99732.16;4973850;28;20070;-89
2021/08/04 00:28:37;;;;;;;2.10;1.90;;;;;;;21.53;46.52;99729.91;4974525;28;20090;-89
2021/08/04 00:31:04;;;;;;;3.17;1.80;;;;;;;21.58;46.30;99726.78;4983395;28;20038;-89
2021/08/04 00:33:31;;;;;;;4.95;2.22;;;;;;;21.78;45.63;99729.97;4993387;28;20109;-89
2021/08/04 00:35:58;;;;;;;2.15;1.90;;;;;;;21.76;46.11;99730.16;4979144;28;20043;-89
2021/08/04 00:38:25;;;;;;;2.72;2.20;;;;;;;21.63;47.05;99725.31;4980440;28;20065;-90
2021/08/04 00:40:52;;;;;;;4.57;2.13;;;;;;;21.70;46.35;99730.78;4992097;28;20585;-90
2021/08/04 00:43:19;;;;;;;2.25;2.00;;;;;;;21.64;46.40;99726.13;4991783;28;20047;-90
2021/08/04 00:45:46;;;;;;;3.95;2.38;;;;;;;21.76;46.39;99731.97;4972976;28;20042;-90
2021/08/04 00:48:13;;;;;;;3.40;2.50;;;;;;;21.93;45.73;99729.19;4972274;28;20438;-89
2021/08/04 00:50:40;;;;;;;4.22;2.30;;;;;;;21.68;46.94;99738.09;4972466;28;20057;-87
2021/08/04 00:53:37;;;;;;;2.83;1.77;;;;;;;21.57;47.69;99738.34;4973486;28;20490;-87
2021/08/04 00:56:08;;;;;;;2.22;2.03;;;;;;;21.51;47.79;99736.34;4964358;28;20049;-86
2021/08/04 00:58:39;;;;;;;4.53;1.83;;;;;;;21.64;47.55;99731.44;4971829;28;20129;-84
2021/08/04 01:01:22;;;;;;;2.05;1.58;;;;;;;21.74;46.79;99740.09;4972061;28;20130;-86
2021/08/04 01:03:55;;;;;;;3.55;2.22;;;;;;;21.79;46.59;99735.16;4973053;28;20065;-85
2021/08/04 01:06:36;;;;;;;3.45;1.88;;;;;;;21.87;46.43;99737.81;4973745;28;20055;-85
2021/08/04 01:09:04;;;;;;;4.45;3.55;;;;;;;21.80;46.86;99742.09;4971782;28;20125;-86
2021/08/04 01:11:38;;;;;;;6.72;2.30;;;;;;;21.71;47.91;99735.09;4972502;28;20570;-86
2021/08/04 01:14:11;;;;;;;3.15;2.65;;;;;;;21.52;48.44;99738.00;4981467;28;20039;-86
2021/08/04 01:16:40;;;;;;;2.58;1.90;;;;;;;21.46;48.57;99731.50;4976003;28;20050;-85
2021/08/04 01:19:35;;;;;;;2.20;2.00;;;;;;;21.60;47.85;99730.09;4986401;28;20054;-86
2021/08/04 01:22:22;;;;;;;;;;;;;;;21.71;47.20;99724.50;4972700;28;20078;-85
2021/08/04 01:25:13;;;;;;;4.60;2.15;;;;;;;21.68;47.55;99727.50;4972997;28;20365;-85
2021/08/04 01:27:44;;;;;;;3.58;1.95;;;;;;;21.62;47.84;99728.09;4972081;28;20053;-86
2021/08/04 01:30:12;;;;;;;3.70;1.80;;;;;;;21.57;47.99;99723.31;4971701;28;20113;-86
2021/08/04 01:32:40;;;;;;;2.17;1.98;;;;;;;21.50;48.44;99724.09;4973763;28;20042;-86
2021/08/04 01:35:08;;;;;;;2.30;1.88;;;;;;;21.40;48.99;99711.78;4972064;28;20034;-86
2021/08/04 01:37:36;;;;;;;4.20;2.28;;;;;;;21.56;48.93;99712.84;4972990;28;20049;-85
2021/08/04 01:40:06;;;;;;;4.38;2.40;;;;;;;21.47;49.13;99712.00;4971119;28;20046;-90
2021/08/04 01:42:35;;;;;;;2.22;1.95;;;;;;;21.47;49.17;99711.16;4971405;28;20047;-88
2021/08/04 01:45:04;;;;;;;5.78;2.67;;;;;;;21.55;49.03;99706.69;4973321;28;20058;-89
2021/08/04 01:47:32;;;;;;;3.47;2.13;;;;;;;21.52;49.09;99706.19;4971620;28;20498;-89
2021/08/04 01:50:00;;;;;;;4.25;2.20;;;;;;;21.57;49.35;99709.19;4973540;28;20054;-90
2021/08/04 01:52:27;;;;;;;4.57;2.40;;;;;;;21.62;48.92;99709.53;4971567;28;20556;-90
2021/08/04 01:54:57;;;;;;;6.38;2.20;;;;;;;21.65;48.90;99711.88;4972904;28;20612;-90
2021/08/04 01:57:24;;;;;;;3.03;2.17;;;;;;;21.68;49.02;99717.69;4971262;28;20043;-91
2021/08/04 01:59:50;;;;;;;4.68;2.00;;;;;;;21.75;48.64;99707.28;4971701;28;20445;-88
2021/08/04 02:02:19;;;;;;;5.40;2.38;;;;;;;21.76;49.03;99708.94;4972871;28;20057;-85
2021/08/04 02:04:48;;;;;;;3.60;2.55;;;;;;;21.73;49.52;99698.63;4971612;28;20053;-84
2021/08/04 02:07:26;;;;;;;2.90;1.88;;;;;;;21.74;49.62;99696.84;4971838;28;20105;-87
2021/08/04 02:09:56;;;;;;;3.47;2.00;;;;;;;21.81;49.30;99690.69;4974814;28;20402;-90
2021/08/04 02:12:24;;;;;;;4.80;2.38;;;;;;;21.95;48.82;99686.59;4975248;28;20053;-88
2021/08/04 02:14:58;;;;;;;4.65;2.28;;;;;;;22.28;48.23;99692.78;4974996;28;20055;-87
2021/08/04 02:17:35;;;;;;;6.18;2.05;;;;;;;22.15;48.30;99687.13;4975369;28;20097;-87
2021/08/04 02:20:23;;;;;;;2.42;2.22;;;;;;;22.01;48.32;99695.72;4976454;28;20046;-86
2021/08/04 02:22:51;;;;;;;3.63;1.88;;;;;;;22.00;48.57;99694.03;4975036;28;20050;-87
2021/08/04 02:25:27;;;;;;;2.95;2.10;;;;;;;21.50;51.40;99697.56;4975952;28;20043;-88
2021/08/04 02:27:55;;;;;;;5.18;1.92;;;;;;;21.19;52.46;99695.41;4975184;28;20098;-90
2021/08/04 02:30:23;;;;;;;4.40;2.15;;;;;;;21.24;52.40;99682.50;4975819;28;20050;-88
2021/08/04 02:32:51;;;;;;;3.83;2.10;;;;;;;21.32;51.47;99689.72;4974974;28;20043;-85
2021/08/04 02:35:18;;;;;;;5.07;2.28;;;;;;;21.55;51.45;99685.47;4975801;28;20613;-85
2021/08/04 02:37:46;;;;;;;2.45;1.80;;;;;;;21.62;50.79;99675.06;4974889;28;20469;-85
2021/08/04 02:40:14;;;;;;;4.43;2.38;;;;;;;21.65;50.41;99669.44;4975906;28;20051;-88
2021/08/04 02:42:43;;;;;;;7.28;1.70;;;;;;;21.60;51.48;99674.41;4974592;28;20081;-87
2021/08/04 02:45:12;;;;;;;2.60;1.80;;;;;;;21.44;52.40;99667.22;4975958;28;20502;-86
2021/08/04 02:47:39;;;;;;;4.40;2.03;;;;;;;21.34;52.67;99667.34;4974286;28;20379;-87
2021/08/04 02:50:08;;;;;;;4.05;2.00;;;;;;;21.33;52.58;99664.84;4974690;28;20055;-86
2021/08/04 02:52:35;;;;;;;11.60;2.88;;;;;;;21.40;51.58;99658.75;4958457;28;20078;-86
2021/08/04 02:55:03;;;;;;;3.67;2.35;;;;;;;21.41;51.64;99660.44;4974546;28;20126;-91
2021/08/04 02:57:30;;;;;;;2.45;1.60;;;;;;;21.05;53.67;99656.25;4975684;28;20053;-90
2021/08/04 02:59:57;;;;;;;4.60;2.25;;;;;;;21.07;53.06;99648.97;4974438;28;20042;-89
2021/08/04 03:02:24;;;;;;;3.35;2.28;;;;;;;21.28;52.75;99649.41;4975034;28;20057;-89
2021/08/04 03:04:51;;;;;;;2.72;2.00;;;;;;;21.27;52.49;99642.44;4975470;28;20042;-89
2021/08/04 03:07:18;;;;;;;3.05;1.88;;;;;;;21.18;52.87;99644.22;4975970;28;20049;-92
2021/08/04 03:09:45;;;;;;;3.55;2.63;;;;;;;21.26;52.40;99642.59;4979799;28;20038;-91
2021/08/04 03:12:12;;;;;;;3.05;2.05;;;;;;;21.27;52.79;99639.78;4981470;28;20038;-89
2021/08/04 03:14:38;;;;;;;7.00;1.80;;;;;;;20.90;54.11;99643.59;4978166;28;20031;-88
2021/08/04 03:17:05;;;;;;;5.93;2.97;;;;;;;21.07;53.40;99654.28;4975351;28;20043;-88
2021/08/04 03:19:32;;;;;;;5.78;2.72;;;;;;;21.09;53.11;99658.44;4978253;28;20047;-89
2021/08/04 03:21:59;;;;;;;3.53;1.92;;;;;;;21.24;53.11;99645.41;4978408;28;20035;-89
2021/08/04 03:24:25;;;;;;;2.13;1.90;;;;;;;21.10;53.41;99643.38;4975098;28;20150;-90
2021/08/04 03:26:52;;;;;;;2.95;1.85;;;;;;;21.09;53.24;99637.25;4974158;28;20047;-90
2021/08/04 03:29:19;;;;;;;6.22;1.95;;;;;;;21.13;53.15;99635.09;4978472;28;20482;-89
2021/08/04 03:31:45;;;;;;;3.05;2.10;;;;;;;21.31;52.35;99638.53;4975361;28;20468;-90
2021/08/04 03:34:12;;;;;;;5.55;2.30;;;;;;;21.29;52.79;99640.44;4976893;28;20098;-90
2021/08/04 03:36:39;;;;;;;4.10;2.05;;;;;;;20.92;54.44;99631.00;4975082;28;20134;-89
2021/08/04 03:39:06;;;;;;;3.25;2.13;;;;;;;20.89;54.61;99641.94;4978700;28;20149;-90
2021/08/04 03:41:35;;;;;;;3.38;2.53;;;;;;;21.10;53.86;99640.72;4976117;28;20046;-91
2021/08/04 03:44:02;;;;;;;2.40;2.17;;;;;;;21.04;53.72;99643.97;4975069;28;20100;-89
2021/08/04 03:46:29;;;;;;;3.22;2.50;;;;;;;21.10;53.19;99643.38;4973742;28;20043;-89
2021/08/04 03:48:55;;;;;;;5.78;2.10;;;;;;;21.47;51.68;99644.88;4978637;28;20051;-90
2021/08/04 03:51:22;;;;;;;2.58;2.17;;;;;;;21.46;51.70;99646.66;4977948;28;20054;-92
2021/08/04 03:53:49;;;;;;;2.10;1.90;;;;;;;21.49;51.41;99648.19;4983305;28;20077;-91
2021/08/04 03:56:18;;;;;;;5.13;2.80;;;;;;;21.37;51.61;99637.88;4975202;28;20129;-92
2021/08/04 03:58:44;;;;;;;3.95;2.47;;;;;;;21.28;52.40;99632.66;4976557;28;20375;-90
2021/08/04 04:01:11;;;;;;;2.78;2.55;;;;;;;21.22;52.84;99634.13;4979477;28;20171;-90
2021/08/04 04:03:38;;;;;;;5.43;2.22;;;;;;;21.30;52.39;99631.53;4981189;28;20133;-86
2021/08/04 04:06:05;;;;;;;4.75;2.72;;;;;;;21.25;52.42;99632.97;4980486;28;20047;-85
2021/08/04 04:08:32;;;;;;;3.05;2.08;;;;;;;21.05;53.37;99643.84;4975887;28;20042;-94
2021/08/04 04:10:59;;;;;;;2.63;2.00;;;;;;;21.12;52.71;99644.84;4980597;28;20497;-89
2021/08/04 04:13:26;;;;;;;3.47;1.73;;;;;;;21.14;52.96;99644.69;4999127;23;20050;-88
2021/08/04 04:15:52;;;;;;;8.25;2.17;;;;;;;21.09;52.48;99631.94;4991207;28;20440;-83
2021/08/04 04:18:19;;;;;;;4.38;2.10;;;;;;;21.14;51.76;99634.09;4991851;28;21016;-85
2021/08/04 04:20:46;;;;;;;4.25;2.20;;;;;;;21.22;51.47;99635.97;4988597;28;20042;-88
2021/08/04 04:23:13;;;;;;;3.95;2.25;;;;;;;21.19;51.82;99639.75;4990403;28;20439;-87
2021/08/04 04:25:39;;;;;;;3.65;2.42;;;;;;;21.24;52.72;99629.50;4989885;28;20516;-86
2021/08/04 04:28:10;;;;;;;3.42;2.03;;;;;;;21.14;52.82;99629.63;4992393;28;20050;-87
2021/08/04 04:30:37;;;;;;;4.07;2.00;;;;;;;21.03;52.89;99623.78;4977195;28;20038;-87
2021/08/04 04:33:04;;;;;;;8.20;2.17;;;;;;;21.01;52.50;99633.72;4990524;28;20501;-87
2021/08/04 04:35:31;;;;;;;5.28;3.15;;;;;;;21.13;52.09;99643.03;4990013;28;20542;-84
2021/08/04 04:37:57;;;;;;;4.85;2.38;;;;;;;21.31;51.18;99669.50;4990329;28;20069;-85
2021/08/04 04:40:24;;;;;;;6.47;1.80;;;;;;;21.28;52.28;99667.13;4986398;28;20077;-86
2021/08/04 04:42:53;;;;;;;2.42;2.20;;;;;;;21.03;53.25;99661.69;4985457;28;20046;-86
2021/08/04 04:45:21;;;;;;;5.70;2.28;;;;;;;20.85;53.64;99663.59;4989166;28;20034;-86
2021/08/04 04:47:48;;;;;;;7.93;2.85;;;;;;;21.01;52.95;99665.50;4987359;28;20047;-88
2021/08/04 04:50:14;;;;;;;2.65;2.35;;;;;;;21.19;51.90;99669.72;4993378;28;20045;-88
2021/08/04 04:52:42;;;;;;;4.65;2.45;;;;;;;21.33;51.60;99662.22;4988867;28;20417;-84
2021/08/04 04:55:11;;;;;;;4.05;2.40;;;;;;;21.17;52.92;99666.41;4993590;28;20046;-85
2021/08/04 04:57:38;;;;;;;4.03;2.22;;;;;;;21.10;53.53;99660.09;4993642;28;20374;-86
2021/08/04 05:00:07;;;;;;;3.08;2.20;;;;;;;21.01;53.62;99661.03;4993159;28;20113;-86
2021/08/04 05:02:41;;;;;;;4.70;1.90;;;;;;;21.14;53.28;99656.13;4993174;28;20461;-84
2021/08/04 05:05:15;;;;;;;7.40;2.45;;;;;;;21.16;53.78;99663.94;4992394;28;20152;-79
2021/08/04 05:07:41;;;;;;;5.57;2.47;;;;;;;21.02;54.16;99664.50;4992746;28;20050;-78
2021/08/04 05:10:08;;;;;;;6.03;2.33;;;;;;;21.25;53.14;99668.25;4990569;28;20517;-79
2021/08/04 05:12:35;;;;;;;4.32;2.17;;;;;;;21.33;52.57;99660.38;4987938;28;20035;-79
2021/08/04 05:15:03;;;;;;;3.55;2.15;;;;;;;21.50;52.80;99676.34;4970812;28;20059;-80
2021/08/04 05:17:30;;;;;;;6.25;2.20;;;;;;;21.37;53.43;99684.78;4971889;28;20066;-79
2021/08/04 05:19:57;;;;;;;3.90;1.92;;;;;;;21.42;53.39;99675.34;4972062;28;20046;-80
2021/08/04 05:22:24;;;;;;;4.65;2.55;;;;;;;21.37;53.09;99672.34;4972003;28;20054;-80
2021/08/04 05:24:51;;;;;;;2.85;2.17;;;;;;;21.41;53.08;99673.69;4973015;28;20051;-79
2021/08/04 05:27:17;;;;;;;3.10;2.03;;;;;;;21.51;52.95;99667.41;4973127;28;20070;-79
2021/08/04 05:29:44;;;;;;;2.90;2.35;;;;;;;21.57;53.04;99677.34;4973721;28;20466;-79
2021/08/04 05:32:11;;;;;;;3.25;2.03;;;;;;;21.55;53.52;99669.56;4972596;28;20054;-79
2021/08/04 05:34:38;;;;;;;4.43;2.05;;;;;;;21.71;53.22;99679.41;4973355;28;20043;-80
2021/08/04 05:37:05;;;;;;;3.22;2.00;;;;;;;21.73;53.00;99674.75;4973194;28;20553;-79
2021/08/04 05:39:31;;;;;;;3.78;2.38;;;;;;;21.80;52.91;99673.13;4973501;28;20089;-79
2021/08/04 05:42:00;;;;;;;2.80;2.10;;;;;;;21.85;52.57;99662.84;4971762;28;20081;-80
2021/08/04 05:44:27;;;;;;;4.05;1.90;;;;;;;22.03;52.67;99670.66;4974529;28;20482;-80
2021/08/04 05:46:53;;;;;;;2.97;1.88;;;;;;;21.89;53.55;99666.84;4976602;28;20047;-80
2021/08/04 05:49:20;;;;;;;3.08;1.95;;;;;;;21.83;53.60;99662.16;4976777;28;20142;-81
2021/08/04 05:51:53;;;;;;;10.27;2.10;;;;;;;21.98;53.09;99671.16;4977174;28;20434;-82
2021/08/04 05:54:19;;;;;;;4.63;2.08;;;;;;;22.05;52.88;99667.84;4976561;28;20585;-83
2021/08/04 05:56:47;;;;;;;7.78;2.42;;;;;;;22.09;52.71;99671.84;4977067;28;20073;-81
2021/08/04 05:59:14;;;;;;;2.20;2.00;;;;;;;22.14;52.99;99677.50;4963933;28;20055;-80
2021/08/04 06:01:41;;;;;;;6.28;1.80;;;;;;;22.25;52.21;99685.16;4971842;28;20051;-81
2021/08/04 06:04:08;;;;;;;5.90;2.17;;;;;;;22.31;51.96;99670.38;4958585;28;20047;-80
2021/08/04 06:06:34;;;;;;;8.65;2.78;;;;;;;22.34;52.63;99672.72;4958332;28;20122;-81
2021/08/04 06:09:01;;;;;;;5.40;2.92;;;;;;;22.36;53.03;99679.50;4962008;28;20055;-83
2021/08/04 06:11:28;;;;;;;4.88;2.00;;;;;;;22.31;53.68;99681.00;4968304;28;20502;-83
2021/08/04 06:13:55;;;;;;;7.85;2.40;;;;;;;22.34;53.79;99681.50;4968236;28;20059;-82
2021/08/04 06:16:22;;;;;;;2.80;2.33;;;;;;;22.36;55.50;99679.50;4975650;28;20050;-84
2021/08/04 06:18:48;;;;;;;4.82;2.40;;;;;;;22.43;55.25;99691.13;4975663;28;20057;-82
2021/08/04 06:21:15;;;;;;;3.55;2.33;;;;;;;22.54;54.02;99687.31;4969404;28;20173;-82
2021/08/04 06:23:47;;;;;;;7.72;2.30;;;;;;;22.53;53.97;99680.34;4975315;28;20142;-81
2021/08/04 06:26:15;;;;;;;9.00;2.20;;;;;;;22.43;53.83;99682.34;4975403;28;20046;-84
2021/08/04 06:28:43;;;;;;;8.68;2.58;;;;;;;22.54;53.75;99687.31;4973850;28;20430;-82
2021/08/04 06:31:10;;;;;;;5.88;2.35;;;;;;;22.63;52.81;99682.81;4974674;28;20058;-81
2021/08/04 06:33:37;;;;;;;4.07;2.05;;;;;;;22.76;52.66;99688.44;4975227;28;20086;-82
2021/08/04 06:36:04;;;;;;;6.75;1.98;;;;;;;22.73;54.31;99688.78;4975947;28;20544;-83
2021/08/04 06:38:31;;;;;;;7.00;2.42;;;;;;;22.64;56.82;99679.19;4975137;28;20039;-82
2021/08/04 06:40:57;;;;;;;5.63;2.45;;;;;;;22.75;56.40;99679.66;4961964;28;20047;-91
2021/08/04 06:43:24;;;;;;;3.55;2.38;;;;;;;22.77;56.22;99674.16;4956056;28;20039;-85
2021/08/04 06:45:51;;;;;;;2.50;2.10;;;;;;;22.79;55.66;99673.97;4956235;28;20047;-80
2021/08/04 06:48:18;;;;;;;2.63;2.28;;;;;;;22.98;54.98;99681.63;4957563;28;20039;-80
2021/08/04 06:50:45;;;;;;;3.38;2.47;;;;;;;23.02;52.20;99682.13;4959047;28;20045;-82
2021/08/04 06:53:14;;;;;;;5.40;2.50;;;;;;;23.06;50.35;99688.72;4957914;28;20121;-80
2021/08/04 06:55:40;;;;;;;3.45;2.30;;;;;;;23.23;47.39;99691.19;4955499;28;20503;-79
2021/08/04 06:58:07;;;;;;;2.47;2.22;;;;;;;23.27;47.51;99700.47;4954980;29;20102;-79
2021/08/04 07:00:34;;;;;;;2.92;2.63;;;;;;;23.26;46.99;99698.81;4973885;28;20465;-82
2021/08/04 07:03:01;;;;;;;4.32;2.50;;;;;;;23.40;46.85;99705.25;4955720;28;20062;-81
2021/08/04 07:05:29;;;;;;;10.73;3.20;;;;;;;23.59;46.35;99706.66;4955962;29;20039;-81
2021/08/04 07:07:56;;;;;;;7.05;2.78;;;;;;;23.51;47.49;99710.19;4955111;29;20383;-80
2021/08/04 07:10:23;;;;;;;7.40;1.70;;;;;;;23.32;47.85;99707.09;4955700;28;20075;-81
2021/08/04 07:12:49;;;;;;;4.45;2.45;;;;;;;23.33;47.83;99712.25;4962477;28;20043;-82
2021/08/04 07:15:16;;;;;;;4.47;2.00;;;;;;;23.40;47.51;99715.88;4975257;28;20491;-79
2021/08/04 07:17:45;;;;;;;4.40;2.10;;;;;;;23.51;47.48;99722.66;4980645;28;20053;-83
2021/08/04 07:20:17;;;;;;;8.75;2.30;;;;;;;23.52;47.98;99722.47;4976378;28;20132;-78
2021/08/04 07:22:44;;;;;;;11.00;3.42;;;;;;;23.53;47.78;99710.81;4972697;28;20101;-81
2021/08/04 07:25:13;;;;;;;45.65;4.47;;;;;;;23.60;47.88;99713.66;4973471;28;20138;-85
2021/08/04 07:27:40;;;;;;;6.25;1.90;;;;;;;23.63;48.09;99718.63;4975346;28;20051;-87
2021/08/04 07:30:09;;;;;;;11.27;2.95;;;;;;;23.58;48.20;99717.47;4975800;28;20188;-88
2021/08/04 07:32:37;;;;;;;3.63;2.13;;;;;;;23.40;48.13;99721.22;4957256;28;20047;-87
2021/08/04 07:35:04;;;;;;;4.22;2.25;;;;;;;23.84;47.43;99723.34;4968327;28;20106;-82
2021/08/04 07:37:34;;;;;;;7.85;2.78;;;;;;;23.57;47.68;99716.66;4975205;28;20046;-84
2021/08/04 07:40:04;;;;;;;6.43;2.60;;;;;;;24.03;47.58;99722.09;4974887;28;20074;-84
2021/08/04 07:42:31;;;;;;;10.10;3.08;;;;;;;23.89;47.23;99726.31;4974568;28;20454;-84
2021/08/04 07:44:58;;;;;;;4.22;2.55;;;;;;;23.81;47.90;99722.88;4974488;28;20039;-81
2021/08/04 07:47:26;;;;;;;7.40;2.63;;;;;;;23.97;47.66;99734.28;4974821;28;20501;-80
2021/08/04 07:49:53;;;;;;;4.07;2.30;;;;;;;24.30;47.14;99734.06;4974799;28;20038;-82
2021/08/04 07:52:19;;;;;;;4.47;2.05;;;;;;;24.44;47.00;99735.13;4971823;28;20035;-82
2021/08/04 07:54:47;;;;;;;6.68;2.65;;;;;;;24.58;46.81;99737.03;4974260;28;20046;-82
2021/08/04 07:57:13;;;;;;;3.58;2.20;;;;;;;24.37;46.95;99723.53;4975105;28;20474;-83
2021/08/04 07:59:40;;;;;;;5.65;2.67;;;;;;;24.45;46.67;99721.66;4975002;28;20566;-88
2021/08/04 08:02:07;;;;;;;10.40;2.72;;;;;;;24.36;46.84;99724.56;4959970;28;20078;-84
2021/08/04 08:04:34;;;;;;;10.73;3.33;;;;;;;24.49;46.98;99716.78;4969176;28;20556;-89
2021/08/04 08:07:02;;;;;;;4.07;2.60;;;;;;;24.73;46.42;99716.56;4964066;28;20102;-92
2021/08/04 08:09:29;;;;;;;6.72;2.05;;;;;;;24.71;46.01;99725.75;4971734;28;20041;-88
2021/08/04 08:11:58;;;;;;;4.25;2.28;;;;;;;24.79;46.23;99729.19;4972218;28;20069;-90
2021/08/04 08:14:26;;;;;;;9.10;3.03;;;;;;;24.74;46.26;99722.72;4966946;28;20461;-86
2021/08/04 08:16:55;;;;;;;3.95;2.60;;;;;;;24.56;45.71;99728.41;4969836;28;20054;-86
2021/08/04 08:19:23;;;;;;;4.93;2.08;;;;;;;25.07;44.59;99721.41;4972327;28;20050;-87
2021/08/04 08:21:50;;;;;;;3.05;2.00;;;;;;;24.92;44.40;99717.88;4975529;28;20454;-87
2021/08/04 08:24:17;;;;;;;10.52;2.80;;;;;;;24.68;44.68;99718.13;4975427;28;20039;-91
2021/08/04 08:26:44;;;;;;;3.65;2.67;;;;;;;25.09;44.51;99707.94;4970515;28;20110;-84
2021/08/04 08:29:11;;;;;;;5.20;2.40;;;;;;;25.42;44.28;99705.69;4984671;28;20090;-93
2021/08/04 08:31:38;;;;;;;2.75;2.35;;;;;;;25.35;43.31;99696.75;4976137;28;20149;-88
2021/08/04 08:34:06;;;;;;;5.90;2.35;;;;;;;25.05;43.88;99702.09;4968211;28;20049;-84
2021/08/04 08:36:35;;;;;;;4.80;2.67;;;;;;;24.92;43.90;99707.22;4972892;28;20118;-87
2021/08/04 08:39:04;;;;;;;10.32;2.25;;;;;;;25.06;43.95;99709.09;4976045;28;20058;-85
2021/08/04 08:41:31;;;;;;;6.63;2.72;;;;;;;25.21;43.72;99711.78;4975831;28;20062;-85
2021/08/04 08:43:59;;;;;;;5.43;2.35;;;;;;;25.12;43.76;99710.22;4981263;28;20446;-88
2021/08/04 08:46:31;;;;;;;9.73;2.35;;;;;;;25.45;43.01;99699.97;4973171;28;20057;-89
2021/08/04 08:49:00;;;;;;;3.78;2.45;;;;;;;25.61;42.63;99698.94;4970102;28;20047;-89
2021/08/04 08:51:27;;;;;;;6.03;2.28;;;;;;;25.69;42.30;99692.69;4969696;28;20043;-86
2021/08/04 08:53:55;;;;;;;7.47;2.20;;;;;;;25.75;41.89;99697.28;4971412;28;20046;-87
2021/08/04 08:56:22;;;;;;;3.40;2.20;;;;;;;25.79;42.12;99695.91;4971851;28;20046;-90
2021/08/04 08:58:54;;;;;;;5.60;2.90;;;;;;;25.88;41.68;99694.75;4972438;28;20046;-81
2021/08/04 09:01:37;;;;;;;7.22;3.05;;;;;;;25.79;41.21;99704.75;4970180;28;20516;-83
2021/08/04 09:04:10;;;;;;;7.10;2.90;;;;;;;25.89;41.30;99703.59;4970529;28;20047;-85
2021/08/04 09:06:48;;;;;;;5.68;1.92;;;;;;;26.01;41.39;99710.94;4970778;28;20512;-85
2021/08/04 09:09:21;;;;;;;12.27;3.13;;;;;;;26.06;41.41;99721.88;4972812;28;20490;-87
2021/08/04 09:12:13;;;;;;;9.32;2.90;;;;;;;25.60;41.61;99718.63;4968055;28;20050;-84
2021/08/04 09:14:44;;;;;;;4.10;2.78;;;;;;;25.75;42.13;99708.78;4960889;28;20102;-84
2021/08/04 09:17:13;;;;;;;4.20;2.95;;;;;;;25.63;42.43;99709.44;4970072;28;20427;-84
2021/08/04 09:19:45;;;;;;;6.57;2.60;;;;;;;26.11;41.97;99706.09;4971484;28;20043;-83
2021/08/04 09:22:22;;;;;;;5.97;2.33;;;;;;;26.12;41.61;99712.28;4973466;28;20457;-82
2021/08/04 09:24:57;;;;;;;7.93;3.30;;;;;;;26.03;41.33;99703.53;4971459;28;20047;-82
2021/08/04 09:27:53;;;;;;;9.80;2.88;;;;;;;25.89;41.63;99701.78;4976097;28;20128;-80
2021/08/04 09:30:32;;;;;;;8.25;3.00;;;;;;;25.75;42.08;99703.47;4974066;28;20043;-81
2021/08/04 09:33:25;;;;;;;12.70;3.00;;;;;;;25.67;42.08;99705.38;4970838;28;20065;-85
2021/08/04 09:35:55;;;;;;;4.28;2.65;;;;;;;25.85;41.83;99711.16;4974215;28;20047;-85
2021/08/04 09:38:24;;;;;;;6.68;3.03;;;;;;;25.64;42.40;99713.75;4974033;28;20047;-88
2021/08/04 09:41:09;;;;;;;11.18;2.47;;;;;;;25.47;42.28;99710.47;4974603;28;20043;-91
2021/08/04 09:43:36;;;;;;;10.77;3.13;;;;;;;25.54;42.13;99703.38;4975726;28;20051;-88
2021/08/04 09:46:03;;;;;;;5.05;2.95;;;;;;;25.41;42.43;99701.38;4974031;28;20043;-87
2021/08/04 09:48:30;;;;;;;4.72;2.78;;;;;;;25.78;42.05;99704.91;4975595;28;20045;-88
2021/08/04 09:51:02;;;;;;;7.70;3.22;;;;;;;25.41;42.30;99706.72;4973433;28;20046;-84
2021/08/04 09:53:33;;;;;;;3.17;2.55;;;;;;;25.21;42.95;99695.78;4971601;28;20043;-87
2021/08/04 09:56:18;;;;;;;5.97;3.40;;;;;;;25.70;42.06;99699.66;4968875;28;20039;-84
2021/08/04 09:58:53;;;;;;;7.55;2.75;;;;;;;25.77;41.77;99692.59;4972527;28;20565;-83
2021/08/04 10:01:36;;;;;;;4.90;2.53;;;;;;;25.97;41.75;99696.31;4974193;28;20042;-89
2021/08/04 10:04:08;;;;;;;7.28;2.90;;;;;;;26.04;41.91;99707.03;4971441;28;20051;-92
2021/08/04 10:06:41;;;;;;;8.60;4.03;;;;;;;25.58;44.60;99710.81;4972627;28;20102;-84
2021/08/04 10:09:10;;;;;;;4.93;2.70;;;;;;;25.24;45.62;99699.91;4972179;28;20437;-83
2021/08/04 10:11:43;;;;;;;10.95;3.53;;;;;;;25.36;45.16;99697.63;4976334;28;20490;-92
2021/08/04 10:14:16;;;;;;;6.90;2.93;;;;;;;25.26;45.87;99701.38;4973026;28;20050;-91
2021/08/04 10:16:45;;;;;;;4.38;3.15;;;;;;;25.55;45.50;99707.69;4974670;28;20186;-88
2021/08/04 10:19:12;;;;;;;5.93;3.35;;;;;;;25.61;45.45;99709.63;4974870;28;20034;-85
2021/08/04 10:21:44;;;;;;;7.78;3.28;;;;;;;25.53;45.36;99707.06;4975841;28;20038;-83
2021/08/04 10:24:12;;;;;;;8.85;2.80;;;;;;;25.81;44.89;99699.22;4977113;28;20043;-81
2021/08/04 10:26:40;;;;;;;10.10;2.72;;;;;;;25.42;45.00;99691.53;4976131;28;20121;-84
2021/08/04 10:29:09;;;;;;;9.55;3.53;;;;;;;25.45;45.10;99702.66;4975409;28;20494;-91
2021/08/04 10:31:39;;;;;;;8.80;3.33;;;;;;;25.79;44.63;99695.91;4973056;28;20039;-89
2021/08/04 10:34:26;;;;;;;10.18;3.25;;;;;;;25.67;45.04;99697.34;4974910;28;20050;-86
2021/08/04 10:36:56;;;;;;;5.50;3.67;;;;;;;25.53;45.13;99705.22;4968880;28;20050;-82
2021/08/04 10:39:25;;;;;;;5.30;3.00;;;;;;;25.50;45.72;99689.56;4967576;28;20053;-82
2021/08/04 10:42:09;;;;;;;4.25;3.03;;;;;;;25.57;45.33;99693.16;4971451;28;20043;-83
2021/08/04 10:44:36;;;;;;;4.80;2.97;;;;;;;25.59;45.33;99677.78;4972879;28;20042;-81
2021/08/04 10:47:04;;;;;;;10.70;4.00;;;;;;;25.80;45.24;99678.88;4970974;28;20059;-82
2021/08/04 10:49:35;;;;;;;7.20;3.60;;;;;;;25.65;45.20;99686.06;4972924;28;20039;-83
2021/08/04 10:52:07;;;;;;;6.38;4.28;;;;;;;25.87;45.33;99669.06;4973511;28;20047;-84
2021/08/04 10:54:34;;;;;;;7.75;2.55;;;;;;;25.73;45.58;99683.28;4972860;28;20039;-82
2021/08/04 10:57:02;;;;;;;7.65;4.28;;;;;;;25.46;45.86;99677.63;4974350;28;20505;-83
2021/08/04 10:59:34;;;;;;;6.20;3.47;;;;;;;25.57;45.61;99673.66;4975252;28;20438;-88
2021/08/04 11:02:01;;;;;;;6.80;3.13;;;;;;;25.77;45.36;99663.22;4973921;28;20090;-84
2021/08/04 11:04:30;;;;;;;6.47;3.30;;;;;;;25.61;45.70;99651.72;4977068;28;20050;-84
2021/08/04 11:07:06;;;;;;;11.70;5.03;;;;;;;25.77;45.22;99652.53;4973468;28;20051;-81
2021/08/04 11:09:54;;;;;;;7.05;4.35;;;;;;;25.63;45.91;99648.06;4971233;28;20042;-82
2021/08/04 11:12:43;;;;;;;5.05;3.90;;;;;;;25.54;46.27;99648.16;4976366;28;20457;-84
2021/08/04 11:15:29;;;;;;;5.05;3.88;;;;;;;25.46;46.53;99661.63;4973859;28;20041;-85
2021/08/04 11:18:03;;;;;;;3.95;3.20;;;;;;;25.41;46.65;99658.69;4988158;28;20479;-82
2021/08/04 11:20:32;;;;;;;5.07;3.55;;;;;;;25.54;46.83;99658.84;4975610;28;20509;-83
2021/08/04 11:22:59;;;;;;;3.42;3.03;;;;;;;25.42;46.90;99648.84;4978352;28;20045;-84
2021/08/04 11:25:35;;;;;;;5.20;3.17;;;;;;;25.46;46.90;99650.09;4983568;28;20450;-84
2021/08/04 11:28:07;;;;;;;4.78;3.35;;;;;;;25.54;46.61;99648.16;4980837;28;20062;-80
2021/08/04 11:30:46;;;;;;;5.88;3.45;;;;;;;25.40;47.26;99646.34;4979944;28;20639;-82
2021/08/04 11:33:19;;;;;;;4.65;3.25;;;;;;;25.74;46.63;99644.91;4977663;28;20055;-88
2021/08/04 11:35:58;;;;;;;9.55;4.10;;;;;;;25.74;46.07;99636.88;4974082;28;20079;-83
2021/08/04 11:38:51;;;;;;;8.35;3.58;;;;;;;25.89;45.95;99637.69;4972520;28;20050;-83
2021/08/04 11:41:34;;;;;;;7.43;3.47;;;;;;;25.66;45.93;99635.16;4973304;28;20051;-85
2021/08/04 11:44:13;;;;;;;6.18;3.60;;;;;;;25.68;45.99;99634.97;4973272;28;20046;-82
2021/08/04 11:46:55;;;;;;;10.23;4.35;;;;;;;25.55;46.25;99619.63;4989177;28;20117;-83